sensor_id;sensor_type;location;lat;lon;timestamp;temperature;humidity
33645;DHT22;19986;48.190;16.366;2022-11-20T05:05:45;5.60;99.90
33645;DHT22;19986;48.190;16.366;2022-11-20T05:08:11;5.60;99.90
33645;DHT22;19986;48.190;16.366;2022-11-20T05:10:38;5.60;99.90
33645;DHT22;19986;48.190;16.366;2022-11-20T05:13:03;5.60;99.90
33645;DHT22;19986;48.190;16.366;2022-11-20T05:15:29;5.50;99.90
33645;DHT22;19986;48.190;16.366;2022-11-20T05:17:55;5.50;99.90
33645;DHT22;19986;48.190;16.366;2022-11-20T05:20:21;5.50;99.90
33645;DHT22;19986;48.190;16.366;2022-11-20T05:22:47;5.50;99.90
33645;DHT22;19986;48.190;16.366;2022-11-20T05:25:12;5.50;99.90
33645;DHT22;19986;48.190;16.366;2022-11-20T05:27:38;5.50;99.90
33645;DHT22;19986;48.190;16.366;2022-11-20T05:30:05;5.60;99.90
33645;DHT22;19986;48.190;16.366;2022-11-20T05:32:31;5.60;99.90
33645;DHT22;19986;48.190;16.366;2022-11-20T05:34:56;5.70;99.90
33645;DHT22;19986;48.190;16.366;2022-11-20T05:37:22;5.70;99.90
33645;DHT22;19986;48.190;16.366;2022-11-20T05:39:48;5.70;99.90
33645;DHT22;19986;48.190;16.366;2022-11-20T05:42:14;5.70;99.90
33645;DHT22;19986;48.190;16.366;2022-11-20T05:45:03;5.70;99.90
33645;DHT22;19986;48.190;16.366;2022-11-20T05:47:32;5.60;99.90
33645;DHT22;19986;48.190;16.366;2022-11-20T05:49:58;5.50;99.90
33645;DHT22;19986;48.190;16.366;2022-11-20T05:52:24;5.60;99.90
33645;DHT22;19986;48.190;16.366;2022-11-20T05:54:50;5.60;99.90
33645;DHT22;19986;48.190;16.366;2022-11-20T05:57:16;5.50;99.90
33645;DHT22;19986;48.190;16.366;2022-11-20T05:59:42;5.50;99.90
33645;DHT22;19986;48.190;16.366;2022-11-20T06:02:08;5.40;99.90
33645;DHT22;19986;48.190;16.366;2022-11-20T06:04:34;5.40;99.90
33645;DHT22;19986;48.190;16.366;2022-11-20T06:07:00;5.40;99.90
33645;DHT22;19986;48.190;16.366;2022-11-20T06:09:26;5.40;99.90
33645;DHT22;19986;48.190;16.366;2022-11-20T06:11:52;5.40;99.90
33645;DHT22;19986;48.190;16.366;2022-11-20T06:14:18;5.40;99.90
33645;DHT22;19986;48.190;16.366;2022-11-20T06:16:44;5.30;99.90
33645;DHT22;19986;48.190;16.366;2022-11-20T06:19:10;5.30;99.90
33645;DHT22;19986;48.190;16.366;2022-11-20T06:21:37;5.40;99.90
33645;DHT22;19986;48.190;16.366;2022-11-20T06:24:03;5.40;99.90
33645;DHT22;19986;48.190;16.366;2022-11-20T06:26:30;5.40;99.90
33645;DHT22;19986;48.190;16.366;2022-11-20T06:28:56;5.40;99.90
33645;DHT22;19986;48.190;16.366;2022-11-20T06:31:24;5.20;99.90
33645;DHT22;19986;48.190;16.366;2022-11-20T06:33:50;5.20;99.90
33645;DHT22;19986;48.190;16.366;2022-11-20T06:36:19;5.20;99.90
33645;DHT22;19986;48.190;16.366;2022-11-20T06:38:45;5.20;99.90
33645;DHT22;19986;48.190;16.366;2022-11-20T06:41:14;5.20;99.90
33645;DHT22;19986;48.190;16.366;2022-11-20T06:43:40;5.20;99.90
33645;DHT22;19986;48.190;16.366;2022-11-20T06:46:06;5.30;99.90
33645;DHT22;19986;48.190;16.366;2022-11-20T06:48:32;5.30;99.90
33645;DHT22;19986;48.190;16.366;2022-11-20T06:50:59;5.40;99.90
33645;DHT22;19986;48.190;16.366;2022-11-20T06:53:25;5.40;99.90
33645;DHT22;19986;48.190;16.366;2022-11-20T06:55:51;5.40;99.90
33645;DHT22;19986;48.190;16.366;2022-11-20T06:58:18;5.40;99.90
33645;DHT22;19986;48.190;16.366;2022-11-20T07:00:44;5.40;99.90
33645;DHT22;19986;48.190;16.366;2022-11-20T07:03:11;5.40;99.90
33645;DHT22;19986;48.190;16.366;2022-11-20T07:05:37;5.40;99.90
33645;DHT22;19986;48.190;16.366;2022-11-20T07:08:04;5.40;99.90
33645;DHT22;19986;48.190;16.366;2022-11-20T07:10:30;5.50;99.90
33645;DHT22;19986;48.190;16.366;2022-11-20T07:12:56;5.50;99.90
33645;DHT22;19986;48.190;16.366;2022-11-20T07:15:24;5.50;99.90
33645;DHT22;19986;48.190;16.366;2022-11-20T07:17:50;5.40;99.90
33645;DHT22;19986;48.190;16.366;2022-11-20T07:20:16;5.40;99.90
33645;DHT22;19986;48.190;16.366;2022-11-20T07:22:42;5.30;99.90
33645;DHT22;19986;48.190;16.366;2022-11-20T07:25:09;5.30;99.90
33645;DHT22;19986;48.190;16.366;2022-11-20T07:27:35;5.40;99.90
33645;DHT22;19986;48.190;16.366;2022-11-20T07:30:02;5.40;99.90
33645;DHT22;19986;48.190;16.366;2022-11-20T07:32:28;5.40;99.90
33645;DHT22;19986;48.190;16.366;2022-11-20T07:34:54;5.50;99.90
33645;DHT22;19986;48.190;16.366;2022-11-20T07:37:20;5.60;99.90
33645;DHT22;19986;48.190;16.366;2022-11-20T07:39:46;5.40;99.90
33645;DHT22;19986;48.190;16.366;2022-11-20T07:42:12;5.40;99.90
33645;DHT22;19986;48.190;16.366;2022-11-20T07:44:38;5.50;99.90
33645;DHT22;19986;48.190;16.366;2022-11-20T07:47:04;5.50;99.90
33645;DHT22;19986;48.190;16.366;2022-11-20T07:49:30;5.50;99.90
33645;DHT22;19986;48.190;16.366;2022-11-20T07:51:56;5.50;99.90
33645;DHT22;19986;48.190;16.366;2022-11-20T07:54:22;5.50;99.90
33645;DHT22;19986;48.190;16.366;2022-11-20T07:56:48;5.50;99.90
33645;DHT22;19986;48.190;16.366;2022-11-20T07:59:14;5.50;99.90
33645;DHT22;19986;48.190;16.366;2022-11-20T08:01:42;5.50;99.90
33645;DHT22;19986;48.190;16.366;2022-11-20T08:04:08;5.50;99.90
33645;DHT22;19986;48.190;16.366;2022-11-20T08:06:35;5.50;99.90
33645;DHT22;19986;48.190;16.366;2022-11-20T08:09:01;5.50;99.90
33645;DHT22;19986;48.190;16.366;2022-11-20T08:11:27;5.50;99.90
33645;DHT22;19986;48.190;16.366;2022-11-20T08:14:11;5.60;99.90
33645;DHT22;19986;48.190;16.366;2022-11-20T08:16:38;5.60;99.90
33645;DHT22;19986;48.190;16.366;2022-11-20T08:19:04;5.60;99.90
33645;DHT22;19986;48.190;16.366;2022-11-20T08:21:33;5.70;99.90
33645;DHT22;19986;48.190;16.366;2022-11-20T08:23:59;5.70;99.90
33645;DHT22;19986;48.190;16.366;2022-11-20T08:26:26;5.70;99.90
33645;DHT22;19986;48.190;16.366;2022-11-20T08:28:56;5.90;99.90
33645;DHT22;19986;48.190;16.366;2022-11-20T08:31:24;5.80;99.90
33645;DHT22;19986;48.190;16.366;2022-11-20T08:33:50;5.90;99.90
33645;DHT22;19986;48.190;16.366;2022-11-20T08:36:17;5.80;99.90
33645;DHT22;19986;48.190;16.366;2022-11-20T08:38:47;5.90;99.90
33645;DHT22;19986;48.190;16.366;2022-11-20T08:41:13;6.00;99.90
33645;DHT22;19986;48.190;16.366;2022-11-20T08:43:58;6.10;99.90
33645;DHT22;19986;48.190;16.366;2022-11-20T08:46:25;6.20;99.90
33645;DHT22;19986;48.190;16.366;2022-11-20T08:48:52;6.30;99.90
33645;DHT22;19986;48.190;16.366;2022-11-20T08:51:19;6.30;99.90
33645;DHT22;19986;48.190;16.366;2022-11-20T08:53:46;6.40;99.90
33645;DHT22;19986;48.190;16.366;2022-11-20T08:56:14;6.40;99.90
33645;DHT22;19986;48.190;16.366;2022-11-20T08:58:40;6.40;99.90
33645;DHT22;19986;48.190;16.366;2022-11-20T09:01:06;6.30;99.90
33645;DHT22;19986;48.190;16.366;2022-11-20T09:03:32;6.30;99.90
33645;DHT22;19986;48.190;16.366;2022-11-20T09:05:59;6.40;99.90
33645;DHT22;19986;48.190;16.366;2022-11-20T09:08:26;6.40;99.90
33645;DHT22;19986;48.190;16.366;2022-11-20T09:10:53;6.40;99.90
33645;DHT22;19986;48.190;16.366;2022-11-20T09:13:20;6.30;99.90
33645;DHT22;19986;48.190;16.366;2022-11-20T09:15:46;6.30;99.90
33645;DHT22;19986;48.190;16.366;2022-11-20T09:18:13;6.40;99.90
33645;DHT22;19986;48.190;16.366;2022-11-20T09:20:39;6.60;99.90
33645;DHT22;19986;48.190;16.366;2022-11-20T09:23:04;6.50;99.90
33645;DHT22;19986;48.190;16.366;2022-11-20T09:25:31;6.50;99.90
33645;DHT22;19986;48.190;16.366;2022-11-20T09:28:03;6.50;99.90
33645;DHT22;19986;48.190;16.366;2022-11-20T09:30:30;6.40;99.90
33645;DHT22;19986;48.190;16.366;2022-11-20T09:32:56;6.40;99.90
33645;DHT22;19986;48.190;16.366;2022-11-20T09:35:22;6.30;99.90
33645;DHT22;19986;48.190;16.366;2022-11-20T09:37:48;6.20;99.90
33645;DHT22;19986;48.190;16.366;2022-11-20T09:40:21;6.20;99.90
33645;DHT22;19986;48.190;16.366;2022-11-20T09:43:13;6.10;99.90
33645;DHT22;19986;48.190;16.366;2022-11-20T09:46:07;6.10;99.90
33645;DHT22;19986;48.190;16.366;2022-11-20T09:51:53;6.20;99.90
33645;DHT22;19986;48.190;16.366;2022-11-20T09:54:33;6.30;99.90
33645;DHT22;19986;48.190;16.366;2022-11-20T09:57:08;6.30;99.90
33645;DHT22;19986;48.190;16.366;2022-11-20T09:59:39;6.20;99.90
33645;DHT22;19986;48.190;16.366;2022-11-20T10:05:06;6.20;99.90
33645;DHT22;19986;48.190;16.366;2022-11-20T10:10:04;6.10;99.90
33645;DHT22;19986;48.190;16.366;2022-11-20T10:21:05;6.70;99.90
33645;DHT22;19986;48.190;16.366;2022-11-20T10:26:43;6.80;99.90
33645;DHT22;19986;48.190;16.366;2022-11-20T10:29:12;6.70;99.90
33645;DHT22;19986;48.190;16.366;2022-11-20T10:31:41;6.80;99.90
33645;DHT22;19986;48.190;16.366;2022-11-20T10:34:21;6.80;99.90
33645;DHT22;19986;48.190;16.366;2022-11-20T10:36:55;6.90;99.90
33645;DHT22;19986;48.190;16.366;2022-11-20T10:39:32;6.90;99.90
33645;DHT22;19986;48.190;16.366;2022-11-20T10:41:59;6.80;99.90
33645;DHT22;19986;48.190;16.366;2022-11-20T10:44:27;6.80;99.90
33645;DHT22;19986;48.190;16.366;2022-11-20T10:47:17;6.90;99.90
33645;DHT22;19986;48.190;16.366;2022-11-20T10:49:49;6.90;99.90
33645;DHT22;19986;48.190;16.366;2022-11-20T10:55:30;7.00;99.90
33645;DHT22;19986;48.190;16.366;2022-11-20T10:58:16;7.20;99.90
33645;DHT22;19986;48.190;16.366;2022-11-20T11:00:46;7.20;99.90
33645;DHT22;19986;48.190;16.366;2022-11-20T11:03:28;7.10;99.90
33645;DHT22;19986;48.190;16.366;2022-11-20T11:08:40;7.20;99.90
33645;DHT22;19986;48.190;16.366;2022-11-20T11:11:24;7.20;99.90
33645;DHT22;19986;48.190;16.366;2022-11-20T11:13:51;7.10;99.90
33645;DHT22;19986;48.190;16.366;2022-11-20T11:16:25;7.20;99.90
33645;DHT22;19986;48.190;16.366;2022-11-20T11:19:02;7.20;99.90
33645;DHT22;19986;48.190;16.366;2022-11-20T11:21:28;7.40;99.90
33645;DHT22;19986;48.190;16.366;2022-11-20T11:23:59;7.50;99.90
33645;DHT22;19986;48.190;16.366;2022-11-20T11:26:26;7.60;99.90
33645;DHT22;19986;48.190;16.366;2022-11-20T11:29:03;7.70;99.90
33645;DHT22;19986;48.190;16.366;2022-11-20T11:31:34;7.70;99.90
33645;DHT22;19986;48.190;16.366;2022-11-20T11:34:08;7.80;99.90
33645;DHT22;19986;48.190;16.366;2022-11-20T11:36:37;7.90;99.90
33645;DHT22;19986;48.190;16.366;2022-11-20T11:39:05;8.00;99.90
33645;DHT22;19986;48.190;16.366;2022-11-20T11:41:34;8.00;99.90
33645;DHT22;19986;48.190;16.366;2022-11-20T11:44:30;8.10;99.90
33645;DHT22;19986;48.190;16.366;2022-11-20T11:48:04;7.90;99.90
33645;DHT22;19986;48.190;16.366;2022-11-20T11:53:03;7.90;99.90
33645;DHT22;19986;48.190;16.366;2022-11-20T12:03:42;8.30;99.90
33645;DHT22;19986;48.190;16.366;2022-11-20T12:06:14;8.30;99.90
33645;DHT22;19986;48.190;16.366;2022-11-20T12:09:13;8.30;99.90
33645;DHT22;19986;48.190;16.366;2022-11-20T12:11:49;8.20;99.90
33645;DHT22;19986;48.190;16.366;2022-11-20T12:14:30;8.20;99.90
33645;DHT22;19986;48.190;16.366;2022-11-20T12:16:57;8.00;99.90
33645;DHT22;19986;48.190;16.366;2022-11-20T12:19:24;7.90;99.90
33645;DHT22;19986;48.190;16.366;2022-11-20T12:24:44;8.00;99.90
33645;DHT22;19986;48.190;16.366;2022-11-20T12:30:04;7.80;99.90
33645;DHT22;19986;48.190;16.366;2022-11-20T12:33:07;7.90;99.90
33645;DHT22;19986;48.190;16.366;2022-11-20T12:43:51;7.90;99.90
33645;DHT22;19986;48.190;16.366;2022-11-20T12:46:46;8.00;99.90
33645;DHT22;19986;48.190;16.366;2022-11-20T12:57:09;8.20;99.90
33645;DHT22;19986;48.190;16.366;2022-11-20T13:05:26;8.20;99.90
33645;DHT22;19986;48.190;16.366;2022-11-20T13:07:53;8.20;99.90
33645;DHT22;19986;48.190;16.366;2022-11-20T13:13:23;8.70;99.90
33645;DHT22;19986;48.190;16.366;2022-11-20T13:16:07;9.00;99.90
33645;DHT22;19986;48.190;16.366;2022-11-20T13:18:39;9.30;99.90
33645;DHT22;19986;48.190;16.366;2022-11-20T13:23:41;9.50;99.90
33645;DHT22;19986;48.190;16.366;2022-11-20T13:26:18;9.50;99.90
33645;DHT22;19986;48.190;16.366;2022-11-20T13:28:46;9.50;99.90
33645;DHT22;19986;48.190;16.366;2022-11-20T13:31:30;9.50;99.90
33645;DHT22;19986;48.190;16.366;2022-11-20T13:33:58;9.50;99.90
33645;DHT22;19986;48.190;16.366;2022-11-20T13:36:28;9.40;99.90
33645;DHT22;19986;48.190;16.366;2022-11-20T13:38:55;9.50;99.90
33645;DHT22;19986;48.190;16.366;2022-11-20T13:41:32;9.50;99.90
33645;DHT22;19986;48.190;16.366;2022-11-20T13:44:12;9.50;99.90
33645;DHT22;19986;48.190;16.366;2022-11-20T13:46:46;9.50;99.90
33645;DHT22;19986;48.190;16.366;2022-11-20T13:49:34;9.50;99.90
33645;DHT22;19986;48.190;16.366;2022-11-20T13:52:20;9.60;99.90
33645;DHT22;19986;48.190;16.366;2022-11-20T14:00:22;9.50;99.90
33645;DHT22;19986;48.190;16.366;2022-11-20T14:03:18;9.50;99.90
33645;DHT22;19986;48.190;16.366;2022-11-20T14:06:01;9.50;99.90
33645;DHT22;19986;48.190;16.366;2022-11-20T14:08:40;9.30;99.90
33645;DHT22;19986;48.190;16.366;2022-11-20T14:11:25;9.30;99.90
33645;DHT22;19986;48.190;16.366;2022-11-20T14:14:27;9.20;99.90
33645;DHT22;19986;48.190;16.366;2022-11-20T14:17:21;9.10;99.90
33645;DHT22;19986;48.190;16.366;2022-11-20T14:19:50;9.10;99.90
33645;DHT22;19986;48.190;16.366;2022-11-20T14:22:20;9.10;99.90
33645;DHT22;19986;48.190;16.366;2022-11-20T14:24:47;9.10;99.90
33645;DHT22;19986;48.190;16.366;2022-11-20T14:27:20;9.20;99.90
33645;DHT22;19986;48.190;16.366;2022-11-20T14:29:49;9.20;99.90
33645;DHT22;19986;48.190;16.366;2022-11-20T14:32:19;9.30;99.90
33645;DHT22;19986;48.190;16.366;2022-11-20T14:34:48;9.40;99.90
33645;DHT22;19986;48.190;16.366;2022-11-20T14:37:21;9.40;99.90
33645;DHT22;19986;48.190;16.366;2022-11-20T14:39:51;9.50;99.90
33645;DHT22;19986;48.190;16.366;2022-11-20T14:42:24;9.50;99.90
33645;DHT22;19986;48.190;16.366;2022-11-20T14:44:52;9.50;99.90
33645;DHT22;19986;48.190;16.366;2022-11-20T14:47:29;9.40;99.90
33645;DHT22;19986;48.190;16.366;2022-11-20T14:49:57;9.40;99.90
33645;DHT22;19986;48.190;16.366;2022-11-20T14:52:26;9.20;99.90
33645;DHT22;19986;48.190;16.366;2022-11-20T14:54:55;9.10;99.90
33645;DHT22;19986;48.190;16.366;2022-11-20T14:59:50;9.00;99.90
33645;DHT22;19986;48.190;16.366;2022-11-20T15:02:32;9.00;99.90
33645;DHT22;19986;48.190;16.366;2022-11-20T15:05:00;9.00;99.90
33645;DHT22;19986;48.190;16.366;2022-11-20T15:07:32;8.90;99.90
33645;DHT22;19986;48.190;16.366;2022-11-20T15:10:08;8.80;99.90
33645;DHT22;19986;48.190;16.366;2022-11-20T15:13:22;8.80;99.90
33645;DHT22;19986;48.190;16.366;2022-11-20T15:15:47;8.80;99.90
33645;DHT22;19986;48.190;16.366;2022-11-20T15:18:22;8.80;99.90
33645;DHT22;19986;48.190;16.366;2022-11-20T15:20:51;8.80;99.90
33645;DHT22;19986;48.190;16.366;2022-11-20T15:23:19;8.80;99.90
33645;DHT22;19986;48.190;16.366;2022-11-20T15:25:46;8.80;99.90
33645;DHT22;19986;48.190;16.366;2022-11-20T15:28:29;8.70;99.90
33645;DHT22;19986;48.190;16.366;2022-11-20T15:30:57;8.70;99.90
33645;DHT22;19986;48.190;16.366;2022-11-20T15:33:24;8.70;99.90
33645;DHT22;19986;48.190;16.366;2022-11-20T15:35:50;8.70;99.90
33645;DHT22;19986;48.190;16.366;2022-11-20T15:38:19;8.70;99.90
33645;DHT22;19986;48.190;16.366;2022-11-20T15:40:45;8.70;99.90
33645;DHT22;19986;48.190;16.366;2022-11-20T15:43:12;8.70;99.90
33645;DHT22;19986;48.190;16.366;2022-11-20T15:45:44;8.70;99.90
33645;DHT22;19986;48.190;16.366;2022-11-20T15:48:20;8.70;99.90
33645;DHT22;19986;48.190;16.366;2022-11-20T15:50:59;8.70;99.90
33645;DHT22;19986;48.190;16.366;2022-11-20T15:53:27;8.70;99.90
33645;DHT22;19986;48.190;16.366;2022-11-20T15:55:54;8.70;99.90
33645;DHT22;19986;48.190;16.366;2022-11-20T15:58:20;8.70;99.90
33645;DHT22;19986;48.190;16.366;2022-11-20T16:00:50;8.70;99.90
33645;DHT22;19986;48.190;16.366;2022-11-20T16:03:17;8.70;99.90
33645;DHT22;19986;48.190;16.366;2022-11-20T16:05:44;8.70;99.90
33645;DHT22;19986;48.190;16.366;2022-11-20T16:08:12;8.70;99.90
33645;DHT22;19986;48.190;16.366;2022-11-20T16:10:39;8.60;99.90
33645;DHT22;19986;48.190;16.366;2022-11-20T16:13:12;8.60;99.90
33645;DHT22;19986;48.190;16.366;2022-11-20T16:15:59;8.60;99.90
33645;DHT22;19986;48.190;16.366;2022-11-20T16:18:26;8.50;99.90
33645;DHT22;19986;48.190;16.366;2022-11-20T16:20:54;8.50;99.90
33645;DHT22;19986;48.190;16.366;2022-11-20T16:23:23;8.50;99.90
33645;DHT22;19986;48.190;16.366;2022-11-20T16:25:51;8.50;99.90
33645;DHT22;19986;48.190;16.366;2022-11-20T16:28:18;8.50;99.90
33645;DHT22;19986;48.190;16.366;2022-11-20T16:30:44;8.40;99.90
33645;DHT22;19986;48.190;16.366;2022-11-20T16:33:16;8.40;99.90
33645;DHT22;19986;48.190;16.366;2022-11-20T16:35:44;8.40;99.90
33645;DHT22;19986;48.190;16.366;2022-11-20T16:38:11;8.40;99.90
33645;DHT22;19986;48.190;16.366;2022-11-20T16:41:00;8.40;99.90
33645;DHT22;19986;48.190;16.366;2022-11-20T16:43:27;8.50;99.90
33645;DHT22;19986;48.190;16.366;2022-11-20T16:45:56;8.50;99.90
33645;DHT22;19986;48.190;16.366;2022-11-20T16:48:25;8.50;99.90
33645;DHT22;19986;48.190;16.366;2022-11-20T16:50:52;8.60;99.90
33645;DHT22;19986;48.190;16.366;2022-11-20T16:53:20;8.60;99.90
33645;DHT22;19986;48.190;16.366;2022-11-20T16:55:48;8.50;99.90
33645;DHT22;19986;48.190;16.366;2022-11-20T16:58:15;8.50;99.90
33645;DHT22;19986;48.190;16.366;2022-11-20T17:00:42;8.50;99.90
33645;DHT22;19986;48.190;16.366;2022-11-20T17:03:09;8.50;99.90
33645;DHT22;19986;48.190;16.366;2022-11-20T17:05:35;8.50;99.90
33645;DHT22;19986;48.190;16.366;2022-11-20T17:08:04;8.40;99.90
33645;DHT22;19986;48.190;16.366;2022-11-20T17:10:33;8.40;99.90
33645;DHT22;19986;48.190;16.366;2022-11-20T17:13:01;8.40;99.90
33645;DHT22;19986;48.190;16.366;2022-11-20T17:15:44;8.40;99.90
33645;DHT22;19986;48.190;16.366;2022-11-20T17:18:12;8.40;99.90
33645;DHT22;19986;48.190;16.366;2022-11-20T17:20:39;8.40;99.90
33645;DHT22;19986;48.190;16.366;2022-11-20T17:23:09;8.40;99.90
33645;DHT22;19986;48.190;16.366;2022-11-20T17:25:35;8.40;99.90
33645;DHT22;19986;48.190;16.366;2022-11-20T17:28:01;8.30;99.90
33645;DHT22;19986;48.190;16.366;2022-11-20T17:30:29;8.30;99.90
33645;DHT22;19986;48.190;16.366;2022-11-20T17:32:55;8.30;99.90
33645;DHT22;19986;48.190;16.366;2022-11-20T17:35:21;8.30;99.90
33645;DHT22;19986;48.190;16.366;2022-11-20T17:37:47;8.30;99.90
33645;DHT22;19986;48.190;16.366;2022-11-20T17:40:14;8.40;99.90
33645;DHT22;19986;48.190;16.366;2022-11-20T17:42:41;8.40;99.90
33645;DHT22;19986;48.190;16.366;2022-11-20T17:45:07;8.40;99.90
33645;DHT22;19986;48.190;16.366;2022-11-20T17:47:34;8.50;99.90
33645;DHT22;19986;48.190;16.366;2022-11-20T17:50:03;8.50;99.90
33645;DHT22;19986;48.190;16.366;2022-11-20T17:52:29;8.50;99.90
33645;DHT22;19986;48.190;16.366;2022-11-20T17:54:55;8.50;99.90
33645;DHT22;19986;48.190;16.366;2022-11-20T17:57:23;8.40;99.90
33645;DHT22;19986;48.190;16.366;2022-11-20T18:00:08;8.40;99.90
33645;DHT22;19986;48.190;16.366;2022-11-20T18:02:38;8.40;99.90
33645;DHT22;19986;48.190;16.366;2022-11-20T18:05:04;8.50;99.90
33645;DHT22;19986;48.190;16.366;2022-11-20T18:07:31;8.40;99.90
33645;DHT22;19986;48.190;16.366;2022-11-20T18:09:58;8.50;99.90
33645;DHT22;19986;48.190;16.366;2022-11-20T18:12:24;8.50;99.90
33645;DHT22;19986;48.190;16.366;2022-11-20T18:14:51;8.50;99.90
33645;DHT22;19986;48.190;16.366;2022-11-20T18:17:19;8.60;99.90
33645;DHT22;19986;48.190;16.366;2022-11-20T18:19:46;8.60;99.90
33645;DHT22;19986;48.190;16.366;2022-11-20T18:22:14;8.60;99.90
33645;DHT22;19986;48.190;16.366;2022-11-20T18:24:41;8.70;99.90
33645;DHT22;19986;48.190;16.366;2022-11-20T18:27:16;8.70;99.90
33645;DHT22;19986;48.190;16.366;2022-11-20T18:29:45;8.70;99.90
33645;DHT22;19986;48.190;16.366;2022-11-20T18:32:14;8.70;99.90
33645;DHT22;19986;48.190;16.366;2022-11-20T18:34:41;8.60;99.90
33645;DHT22;19986;48.190;16.366;2022-11-20T18:37:07;8.70;99.90
33645;DHT22;19986;48.190;16.366;2022-11-20T18:39:35;8.60;99.90
33645;DHT22;19986;48.190;16.366;2022-11-20T18:42:02;8.60;99.90
33645;DHT22;19986;48.190;16.366;2022-11-20T18:44:47;8.50;99.90
33645;DHT22;19986;48.190;16.366;2022-11-20T18:47:28;8.40;99.90
33645;DHT22;19986;48.190;16.366;2022-11-20T18:49:58;8.20;99.90
33645;DHT22;19986;48.190;16.366;2022-11-20T18:52:30;8.20;99.90
33645;DHT22;19986;48.190;16.366;2022-11-20T18:55:17;8.10;99.90
33645;DHT22;19986;48.190;16.366;2022-11-20T18:57:45;8.00;99.90
33645;DHT22;19986;48.190;16.366;2022-11-20T19:00:12;8.00;99.90
33645;DHT22;19986;48.190;16.366;2022-11-20T19:02:39;7.90;99.90
33645;DHT22;19986;48.190;16.366;2022-11-20T19:05:08;7.90;99.90
33645;DHT22;19986;48.190;16.366;2022-11-20T19:07:34;7.90;99.90
33645;DHT22;19986;48.190;16.366;2022-11-20T19:10:03;7.90;99.90
33645;DHT22;19986;48.190;16.366;2022-11-20T19:12:32;7.90;99.90
33645;DHT22;19986;48.190;16.366;2022-11-20T19:14:58;7.90;99.90
33645;DHT22;19986;48.190;16.366;2022-11-20T19:17:24;7.90;99.90
33645;DHT22;19986;48.190;16.366;2022-11-20T19:19:50;8.00;99.90
33645;DHT22;19986;48.190;16.366;2022-11-20T19:22:17;8.00;99.90
33645;DHT22;19986;48.190;16.366;2022-11-20T19:24:43;8.10;99.90
33645;DHT22;19986;48.190;16.366;2022-11-20T19:27:12;8.10;99.90
33645;DHT22;19986;48.190;16.366;2022-11-20T19:29:39;8.10;99.90
33645;DHT22;19986;48.190;16.366;2022-11-20T19:32:06;8.20;99.90
33645;DHT22;19986;48.190;16.366;2022-11-20T19:34:32;8.20;99.90
33645;DHT22;19986;48.190;16.366;2022-11-20T19:36:58;8.20;99.90
33645;DHT22;19986;48.190;16.366;2022-11-20T19:39:25;8.20;99.90
33645;DHT22;19986;48.190;16.366;2022-11-20T19:41:51;8.20;99.90
33645;DHT22;19986;48.190;16.366;2022-11-20T19:44:18;8.20;99.90
33645;DHT22;19986;48.190;16.366;2022-11-20T19:46:44;8.20;99.90
33645;DHT22;19986;48.190;16.366;2022-11-20T19:49:12;8.20;99.90
33645;DHT22;19986;48.190;16.366;2022-11-20T19:51:43;8.20;99.90
33645;DHT22;19986;48.190;16.366;2022-11-20T19:54:10;8.20;99.90
33645;DHT22;19986;48.190;16.366;2022-11-20T19:56:36;8.20;99.90
33645;DHT22;19986;48.190;16.366;2022-11-20T19:59:02;8.30;99.90
33645;DHT22;19986;48.190;16.366;2022-11-20T20:01:31;8.30;99.90
33645;DHT22;19986;48.190;16.366;2022-11-20T20:03:59;8.30;99.90
33645;DHT22;19986;48.190;16.366;2022-11-20T20:06:31;8.20;99.90
33645;DHT22;19986;48.190;16.366;2022-11-20T20:09:03;8.30;99.90
33645;DHT22;19986;48.190;16.366;2022-11-20T20:11:31;8.20;99.90
33645;DHT22;19986;48.190;16.366;2022-11-20T20:14:09;8.20;99.90
33645;DHT22;19986;48.190;16.366;2022-11-20T20:16:38;8.20;99.90
33645;DHT22;19986;48.190;16.366;2022-11-20T20:19:05;8.10;99.90
33645;DHT22;19986;48.190;16.366;2022-11-20T20:21:33;8.20;99.90
33645;DHT22;19986;48.190;16.366;2022-11-20T20:24:01;8.20;99.90
33645;DHT22;19986;48.190;16.366;2022-11-20T20:26:30;8.20;99.90
33645;DHT22;19986;48.190;16.366;2022-11-20T20:28:57;8.10;99.90
33645;DHT22;19986;48.190;16.366;2022-11-20T20:31:26;8.10;99.90
33645;DHT22;19986;48.190;16.366;2022-11-20T20:33:52;8.10;99.90
33645;DHT22;19986;48.190;16.366;2022-11-20T20:36:20;8.10;99.90
33645;DHT22;19986;48.190;16.366;2022-11-20T20:38:50;8.00;99.90
33645;DHT22;19986;48.190;16.366;2022-11-20T20:41:18;8.00;99.90
33645;DHT22;19986;48.190;16.366;2022-11-20T20:43:48;8.00;99.90
33645;DHT22;19986;48.190;16.366;2022-11-20T20:46:33;8.00;99.90
33645;DHT22;19986;48.190;16.366;2022-11-20T20:49:00;7.90;99.90
33645;DHT22;19986;48.190;16.366;2022-11-20T20:51:27;7.90;99.90
33645;DHT22;19986;48.190;16.366;2022-11-20T20:53:53;7.90;99.90
33645;DHT22;19986;48.190;16.366;2022-11-20T20:56:19;8.00;99.90
33645;DHT22;19986;48.190;16.366;2022-11-20T20:58:46;8.00;99.90
